Hastings, NE (68901)

12:30 AM CST on February 12, 2016 (GMT -0600)
Hastings | | Change Station
CLOSE
Current Station
Personal Weather Station
Location: Hastings, NE
Elevation: 1936 ft
Nearby Weather Stations

Elev 1936 ft 40.59 °N, 98.41 °W | Updated 16 minutes ago

Overcast
Overcast
32.5 °F
Feels Like 32 °F
N
3.0
Wind Variable Wind from NNE
Gusts 9.0 mph

Today
High -- | Low -- °F
--% Chance of Precip.
Yesterday
High -- | Low -- °F
Precip. -- in
Pressure 30.22 in
Visibility 10.0 miles
Clouds Overcast 1400 ft
Windchill 32 °F
Dew Point 29 °F
Humidity 89%
Rainfall 0.00 in
Snow Depth Not available.
7:31 AM 6:04 PM
Waxing Crescent, 18% visible
SPECI KHSI 120615Z AUTO 35014KT 10SM OVC014 00/M03 A3022 RMK AO2 T00001028
Pressure 30.22 in
Visibility 10.0 miles
Clouds Overcast 1400 ft
Windchill 32 °F
Dew Point 29 °F
Humidity 89%
Rainfall 0.00 in
Snow Depth Not available.
7:31 AM 6:04 PM
Waxing Crescent, 18% visible
SPECI KHSI 120615Z AUTO 35014KT 10SM OVC014 00/M03 A3022 RMK AO2 T00001028

10-Day Weather Forecast

Almanac

Astronomy

Feb. 12, 2016 Rise Set
Actual Time
Civil Twilight
Nautical Twilight
Astronomical Twilight
Moon
Length of Visible Light
Length of Day
Tomorrow will be .
, % of the Moon is Illuminated

Today's Extremes

State Highs State Lows

Community

WunderPhotos

Upload Photos

1,892,276 photos uploaded!

WunderBlog® & News

Nearby

Air Quality

  Air Quality AQ Index Pollutant
Not available.

Snow Depth

Station Depth Elevation

Earthquake Activity

City Distance Mag. Time & Date
Minimum magnitude displayed is 2.5.

Coastal Water Temperatures

Place Temperature

Stations

Nearby Weather Stations

Station Location Temp. Windchill Dew Point Humidity Wind Precip. Elev Updated Type
                   

Watches & Warnings

There are currently no watches in effect.